createdAt,value
2023-05-19T00:00:21.297Z,100027.89
2023-05-19T00:01:17.315Z,100030.84
2023-05-19T00:01:49.979Z,100029.47
2023-05-19T00:02:25.551Z,100029.91
2023-05-19T00:02:59.989Z,100030.83
2023-05-19T00:03:33.423Z,100030.89
2023-05-19T00:04:06.584Z,100028.95
2023-05-19T00:04:40.275Z,100031.11
2023-05-19T00:05:14.674Z,100031.14
2023-05-19T00:05:48.454Z,100032.02
2023-05-19T00:06:26.401Z,100032.39
2023-05-19T00:06:59.948Z,100029.45
2023-05-19T00:07:33.334Z,100030.92
2023-05-19T00:08:06.541Z,100030.33
2023-05-19T00:08:38.717Z,100028.34
2023-05-19T00:09:12.322Z,100030.05
2023-05-19T00:09:44.621Z,100028.86
2023-05-19T00:10:17.786Z,100026.14
2023-05-19T00:10:50.258Z,100028.79
2023-05-19T00:11:22.621Z,100027.35
2023-05-19T00:11:56.326Z,100027.88
2023-05-19T00:12:28.585Z,100025.77
2023-05-19T00:13:01.132Z,100025.48
2023-05-19T00:13:33.588Z,100023.94
2023-05-19T00:14:08.929Z,100024.42
2023-05-19T00:14:41.429Z,100025.26
2023-05-19T00:15:14.544Z,100023.52
2023-05-19T00:15:46.817Z,100026.83
2023-05-19T00:16:19.010Z,100025.58
2023-05-19T00:16:51.521Z,100024.95
2023-05-19T00:17:24.440Z,100024.55
2023-05-19T00:17:56.601Z,100022.19
2023-05-19T00:18:29.424Z,100022.62
2023-05-19T00:19:04.358Z,100023.14
2023-05-19T00:19:37.717Z,100023.14
2023-05-19T00:20:11.808Z,100021.56
2023-05-19T00:20:43.658Z,100024.32
2023-05-19T00:21:16.637Z,100021.86
2023-05-19T00:21:48.536Z,100023.70
2023-05-19T00:22:20.746Z,100024.55
2023-05-19T00:22:52.688Z,100026.27
2023-05-19T00:23:24.960Z,100023.45
2023-05-19T00:23:57.632Z,100025.84
2023-05-19T00:24:29.677Z,100024.77
2023-05-19T00:25:01.728Z,100024.92
2023-05-19T00:25:33.662Z,100021.98
2023-05-19T00:26:05.923Z,100027.22
2023-05-19T00:26:37.904Z,100024.03
2023-05-19T00:27:10.140Z,100023.67
2023-05-19T00:27:42.084Z,100025.36
2023-05-19T00:28:14.089Z,100024.13
2023-05-19T00:28:46.083Z,100023.80
2023-05-19T00:29:18.296Z,100021.80
2023-05-19T00:29:50.293Z,100025.25
2023-05-19T00:30:22.665Z,100023.43
2023-05-19T00:30:55.741Z,100022.05
2023-05-19T00:31:28.631Z,100019.89
2023-05-19T00:32:00.930Z,100022.09
2023-05-19T00:32:33.049Z,100021.23
2023-05-19T00:33:04.987Z,100020.61
2023-05-19T00:33:37.330Z,100024.20
2023-05-19T00:34:09.461Z,100023.48
2023-05-19T00:34:42.143Z,100023.03
2023-05-19T00:35:14.496Z,100023.14
2023-05-19T00:35:46.439Z,100023.80
2023-05-19T00:36:18.385Z,100020.13
2023-05-19T00:36:50.856Z,100021.17
2023-05-19T00:37:23.116Z,100021.11
2023-05-19T00:37:55.258Z,100021.94
2023-05-19T00:38:27.196Z,100020.01
2023-05-19T00:38:59.051Z,100023.29
2023-05-19T00:39:31.308Z,100023.45
2023-05-19T00:40:05.825Z,100024.18
2023-05-19T00:40:37.873Z,100022.49
2023-05-19T00:41:10.638Z,100021.40
2023-05-19T00:41:42.607Z,100023.50
2023-05-19T00:42:14.544Z,100022.68
2023-05-19T00:42:46.524Z,100023.90
2023-05-19T00:43:18.437Z,100022.13
2023-05-19T00:43:50.799Z,100019.17
2023-05-19T00:44:22.846Z,100021.25
2023-05-19T00:44:55.114Z,100022.98
2023-05-19T00:45:27.564Z,100023.67
2023-05-19T00:46:00.354Z,100021.19
2023-05-19T00:46:32.346Z,100023.05
2023-05-19T00:47:04.560Z,100022.34
2023-05-19T00:47:36.959Z,100022.27
2023-05-19T00:48:09.275Z,100021.42
2023-05-19T00:48:44.383Z,100020.70
2023-05-19T00:49:16.584Z,100016.21
2023-05-19T00:49:48.599Z,100021.81
2023-05-19T00:50:21.062Z,100019.59
2023-05-19T00:50:57.516Z,100017.55
2023-05-19T00:51:30.890Z,100020.27
2023-05-19T00:52:05.762Z,100017.38
2023-05-19T00:52:37.753Z,100022.48
2023-05-19T00:53:09.900Z,100019.95
2023-05-19T00:53:43.501Z,100017.73
2023-05-19T00:54:15.860Z,100020.63
2023-05-19T00:54:51.127Z,100020.98
2023-05-19T00:55:29.075Z,100019.38
2023-05-19T00:56:02.574Z,100019.20
2023-05-19T00:56:35.351Z,100018.13
2023-05-19T00:57:07.476Z,100016.11
2023-05-19T00:57:39.654Z,100017.80
2023-05-19T00:58:12.468Z,100016.77
2023-05-19T00:58:45.773Z,100020.98
2023-05-19T00:59:17.860Z,100015.11
2023-05-19T00:59:50.101Z,100018.88
2023-05-19T01:00:22.822Z,100014.39
2023-05-19T01:01:03.168Z,100014.15
2023-05-19T01:01:36.341Z,100019.23
2023-05-19T01:02:08.536Z,100017.92
2023-05-19T01:02:41.181Z,100019.27
2023-05-19T01:03:14.772Z,100018.41
2023-05-19T01:03:48.260Z,100019.27
2023-05-19T01:04:21.453Z,100018.94
2023-05-19T01:04:55.156Z,100018.64
2023-05-19T01:05:27.206Z,100019.96
2023-05-19T01:06:01.409Z,100018.05
2023-05-19T01:06:34.274Z,100018.75
2023-05-19T01:07:06.743Z,100012.84
2023-05-19T01:07:41.049Z,100015.89
2023-05-19T01:08:13.198Z,100018.52
2023-05-19T01:08:46.192Z,100015.77
2023-05-19T01:09:18.120Z,100017.63
2023-05-19T01:09:50.779Z,100018.95
2023-05-19T01:10:22.847Z,100019.25
2023-05-19T01:10:55.093Z,100016.99
2023-05-19T01:11:27.322Z,100020.30
2023-05-19T01:12:01.255Z,100018.98
2023-05-19T01:12:34.219Z,100016.16
2023-05-19T01:13:07.624Z,100014.52
2023-05-19T01:13:41.920Z,100014.35
2023-05-19T01:14:15.412Z,100014.48
2023-05-19T01:14:47.543Z,100014.42
2023-05-19T01:15:19.391Z,100015.45
2023-05-19T01:16:02.197Z,100012.95
2023-05-19T01:16:39.841Z,100012.42
2023-05-19T01:17:27.298Z,100015.05
2023-05-19T01:18:11.663Z,100019.25
2023-05-19T01:18:56.727Z,100014.30
2023-05-19T01:20:01.812Z,100017.52
2023-05-19T01:20:52.291Z,100019.64
2023-05-19T01:21:55.478Z,100019.41
2023-05-19T01:22:45.958Z,100016.54
2023-05-19T01:23:32.372Z,100015.35
2023-05-19T01:24:22.388Z,100013.59
2023-05-19T01:25:19.987Z,100015.74
2023-05-19T01:26:14.047Z,100012.59
2023-05-19T01:27:13.372Z,100015.33
2023-05-19T01:27:48.478Z,100014.20
2023-05-19T01:28:44.674Z,100014.77
2023-05-19T01:29:42.182Z,100019.45
2023-05-19T01:30:22.063Z,100016.65
2023-05-19T01:30:57.898Z,100018.05
2023-05-19T01:31:30.080Z,100021.40
2023-05-19T01:32:04.520Z,100017.34
2023-05-19T01:32:40.249Z,100018.69
2023-05-19T01:33:14.866Z,100017.30
2023-05-19T01:33:48.879Z,100021.40
2023-05-19T01:34:23.417Z,100017.73
2023-05-19T01:34:57.286Z,100019.49
2023-05-19T01:35:30.501Z,100016.51
2023-05-19T01:36:03.874Z,100016.21
2023-05-19T01:36:37.700Z,100018.58
2023-05-19T01:37:11.270Z,100015.77
2023-05-19T01:37:45.059Z,100016.26
2023-05-19T01:38:19.051Z,100015.34
2023-05-19T01:38:53.734Z,100016.27
2023-05-19T01:39:26.223Z,100016.38
2023-05-19T01:39:58.390Z,100014.59
2023-05-19T01:40:32.216Z,100016.06
2023-05-19T01:41:06.572Z,100013.88
2023-05-19T01:41:41.599Z,100013.29
2023-05-19T01:42:14.992Z,100010.73
2023-05-19T01:42:48.483Z,100014.70
2023-05-19T01:43:23.520Z,100016.21
2023-05-19T01:43:56.774Z,100013.06
2023-05-19T01:44:29.229Z,100014.41
2023-05-19T01:45:02.110Z,100014.41
2023-05-19T01:45:35.193Z,100012.61
2023-05-19T01:46:08.013Z,100015.57
2023-05-19T01:46:41.123Z,100012.92
2023-05-19T01:47:14.113Z,100014.52
2023-05-19T01:47:48.846Z,100014.93
2023-05-19T01:48:21.234Z,100013.52
2023-05-19T01:48:53.838Z,100014.56
2023-05-19T01:49:25.895Z,100014.20
2023-05-19T01:49:57.834Z,100017.05
2023-05-19T01:50:30.987Z,100015.36
2023-05-19T01:51:03.096Z,100016.55
2023-05-19T01:51:35.649Z,100015.46
2023-05-19T01:52:07.588Z,100019.41
2023-05-19T01:52:39.653Z,100015.44
2023-05-19T01:53:11.682Z,100017.83
2023-05-19T01:53:43.737Z,100017.86
2023-05-19T01:54:15.992Z,100017.11
2023-05-19T01:54:47.837Z,100016.06
2023-05-19T01:55:22.433Z,100015.15
2023-05-19T01:55:57.006Z,100015.78
2023-05-19T01:56:52.886Z,100012.75
2023-05-19T01:57:24.833Z,100013.08
2023-05-19T01:58:19.299Z,100010.07
2023-05-19T01:59:04.057Z,100014.16
2023-05-19T02:00:08.270Z,100008.41
2023-05-19T02:01:03.498Z,100009.23
2023-05-19T02:02:11.859Z,100008.63
2023-05-19T02:02:56.828Z,100010.48
2023-05-19T02:03:47.706Z,100006.22
2023-05-19T02:04:32.234Z,100009.29
2023-05-19T02:05:17.313Z,100009.94
2023-05-19T02:05:55.597Z,100008.04
2023-05-19T02:06:31.038Z,100006.89
2023-05-19T02:07:19.991Z,100006.63
2023-05-19T02:08:13.230Z,100008.36
2023-05-19T02:08:58.297Z,100008.14
2023-05-19T02:09:47.957Z,100003.98
2023-05-19T02:10:30.546Z,100005.60
2023-05-19T02:11:30.348Z,100004.95
2023-05-19T02:12:11.837Z,100003.51
2023-05-19T02:12:45.719Z,100005.38
2023-05-19T02:13:21.162Z,100004.94
2023-05-19T02:13:56.479Z,100007.49
2023-05-19T02:14:58.326Z,100005.36
2023-05-19T02:15:38.144Z,100004.57
2023-05-19T02:16:13.047Z,100005.24
2023-05-19T02:16:47.378Z,100006.63
2023-05-19T02:17:20.511Z,100008.72
2023-05-19T02:17:54.786Z,100007.89
2023-05-19T02:18:29.462Z,100007.45
2023-05-19T02:19:01.482Z,100009.21
2023-05-19T02:19:42.078Z,100006.56
2023-05-19T02:20:15.680Z,100007.69
2023-05-19T02:20:48.346Z,100009.89
2023-05-19T02:21:20.409Z,100006.38
2023-05-19T02:21:52.979Z,100007.54
2023-05-19T02:22:25.818Z,100010.17
2023-05-19T02:22:57.778Z,100011.04
2023-05-19T02:23:30.946Z,100010.58
2023-05-19T02:24:03.631Z,100010.62
2023-05-19T02:24:37.320Z,100011.09
2023-05-19T02:25:10.185Z,100015.71
2023-05-19T02:25:42.455Z,100014.55
2023-05-19T02:26:14.583Z,100012.79
2023-05-19T02:26:46.631Z,100013.73
2023-05-19T02:27:18.797Z,100014.73
2023-05-19T02:27:51.046Z,100015.69
2023-05-19T02:28:23.205Z,100014.91
2023-05-19T02:28:55.464Z,100016.93
2023-05-19T02:29:27.607Z,100018.08
2023-05-19T02:29:59.698Z,100013.48
2023-05-19T02:30:31.885Z,100015.58
2023-05-19T02:31:08.696Z,100018.31
2023-05-19T02:31:40.796Z,100013.95
2023-05-19T02:32:13.141Z,100016.90
2023-05-19T02:32:46.425Z,100019.16
2023-05-19T02:33:19.136Z,100020.73
2023-05-19T02:33:51.010Z,100020.66
2023-05-19T02:34:22.953Z,100017.48
2023-05-19T02:34:56.213Z,100017.12
2023-05-19T02:35:28.174Z,100023.02
2023-05-19T02:36:00.335Z,100020.64
2023-05-19T02:36:36.979Z,100019.52
2023-05-19T02:37:09.032Z,100017.76
2023-05-19T02:37:41.055Z,100018.45
2023-05-19T02:38:13.042Z,100017.59
2023-05-19T02:38:45.508Z,100020.52
2023-05-19T02:39:17.752Z,100018.55
2023-05-19T02:39:50.113Z,100018.58
2023-05-19T02:40:22.472Z,100016.45
2023-05-19T02:40:54.342Z,100016.56
2023-05-19T02:41:26.474Z,100018.14
2023-05-19T02:41:58.514Z,100021.39
2023-05-19T02:42:31.102Z,100022.93
2023-05-19T02:43:03.223Z,100020.11
2023-05-19T02:43:35.242Z,100020.71
2023-05-19T02:44:07.359Z,100019.83
2023-05-19T02:44:39.201Z,100020.88
2023-05-19T02:45:11.651Z,100019.93
2023-05-19T02:45:43.802Z,100019.38
2023-05-19T02:46:15.889Z,100023.17
2023-05-19T02:46:47.958Z,100017.58
2023-05-19T02:47:20.139Z,100022.04
2023-05-19T02:47:52.132Z,100023.22
2023-05-19T02:48:24.165Z,100019.19
2023-05-19T02:48:56.114Z,100018.27
2023-05-19T02:49:30.627Z,100018.77
2023-05-19T02:50:03.189Z,100017.52
2023-05-19T02:50:35.138Z,100018.56
2023-05-19T02:51:07.188Z,100021.19
2023-05-19T02:51:39.204Z,100020.08
2023-05-19T02:52:11.812Z,100019.86
2023-05-19T02:52:43.857Z,100018.81
2023-05-19T02:53:15.808Z,100019.48
2023-05-19T02:53:48.016Z,100017.02
2023-05-19T02:54:20.226Z,100015.80
2023-05-19T02:54:52.274Z,100017.17
2023-05-19T02:55:24.320Z,100015.05
2023-05-19T02:55:56.389Z,100017.16
2023-05-19T02:56:28.441Z,100018.46
2023-05-19T02:57:01.190Z,100014.77
2023-05-19T02:57:35.023Z,100014.70
2023-05-19T02:58:07.237Z,100014.58
2023-05-19T02:58:39.292Z,100013.86
2023-05-19T02:59:11.422Z,100014.18
2023-05-19T02:59:43.829Z,100014.64
2023-05-19T03:00:16.226Z,100014.25
2023-05-19T03:00:48.112Z,100014.05
2023-05-19T03:01:21.837Z,100014.38
2023-05-19T03:02:01.308Z,100014.90
2023-05-19T03:02:33.871Z,100015.73
2023-05-19T03:03:06.183Z,100015.76
2023-05-19T03:03:38.452Z,100012.53
2023-05-19T03:04:11.026Z,100012.27
2023-05-19T03:04:43.740Z,100014.69
2023-05-19T03:05:15.896Z,100012.85
2023-05-19T03:05:48.288Z,100012.40
2023-05-19T03:06:22.865Z,100011.05
2023-05-19T03:06:55.335Z,100013.13
2023-05-19T03:07:27.487Z,100010.86
2023-05-19T03:07:59.501Z,100012.39
2023-05-19T03:08:31.686Z,100011.35
2023-05-19T03:09:03.752Z,100010.42
2023-05-19T03:09:37.402Z,100009.89
2023-05-19T03:10:09.718Z,100011.17
2023-05-19T03:10:41.771Z,100008.92
2023-05-19T03:11:15.127Z,100009.55
2023-05-19T03:11:47.175Z,100009.91
2023-05-19T03:12:19.211Z,100010.89
2023-05-19T03:12:51.385Z,100009.13
2023-05-19T03:13:23.536Z,100012.74
2023-05-19T03:13:55.782Z,100010.48
2023-05-19T03:14:27.842Z,100010.98
2023-05-19T03:15:00.871Z,100013.49
2023-05-19T03:15:34.004Z,100011.32
2023-05-19T03:16:07.845Z,100016.25
2023-05-19T03:16:42.888Z,100013.79
2023-05-19T03:17:14.912Z,100015.36
2023-05-19T03:17:46.936Z,100017.61
2023-05-19T03:18:19.186Z,100013.19
2023-05-19T03:18:51.974Z,100015.78
2023-05-19T03:19:24.170Z,100017.91
2023-05-19T03:19:56.245Z,100018.89
2023-05-19T03:20:30.233Z,100021.13
2023-05-19T03:21:02.819Z,100021.98
2023-05-19T03:21:35.189Z,100020.14
2023-05-19T03:22:07.216Z,100022.12
2023-05-19T03:22:39.111Z,100021.87
2023-05-19T03:23:11.136Z,100022.36
2023-05-19T03:23:43.385Z,100024.06
2023-05-19T03:24:16.032Z,100022.10
2023-05-19T03:24:50.761Z,100022.55
2023-05-19T03:25:22.968Z,100021.83
2023-05-19T03:25:55.894Z,100022.48
2023-05-19T03:26:29.070Z,100025.66
2023-05-19T03:27:02.175Z,100022.59
2023-05-19T03:27:34.633Z,100027.02
2023-05-19T03:28:06.763Z,100022.95
2023-05-19T03:28:38.899Z,100027.91
2023-05-19T03:29:11.156Z,100027.39
2023-05-19T03:29:43.167Z,100027.70
2023-05-19T03:30:15.353Z,100024.73
2023-05-19T03:30:49.977Z,100025.64
2023-05-19T03:31:22.140Z,100028.08
2023-05-19T03:31:54.386Z,100030.17
2023-05-19T03:32:26.718Z,100027.90
2023-05-19T03:33:01.316Z,100029.32
2023-05-19T03:33:33.654Z,100029.52
2023-05-19T03:34:05.787Z,100027.91
2023-05-19T03:34:37.735Z,100024.59
2023-05-19T03:35:09.678Z,100026.04
2023-05-19T03:35:42.044Z,100025.02
2023-05-19T03:36:14.187Z,100027.15
2023-05-19T03:36:46.433Z,100025.21
2023-05-19T03:37:18.397Z,100024.55
2023-05-19T03:37:50.648Z,100027.56
2023-05-19T03:38:23.122Z,100029.80
2023-05-19T03:38:55.159Z,100027.64
2023-05-19T03:39:27.098Z,100027.08
2023-05-19T03:39:59.873Z,100026.49
2023-05-19T03:40:32.046Z,100026.27
2023-05-19T03:41:04.399Z,100029.70
2023-05-19T03:41:36.782Z,100030.00
2023-05-19T03:42:08.915Z,100028.73
2023-05-19T03:42:40.953Z,100031.31
2023-05-19T03:43:13.105Z,100032.85
2023-05-19T03:43:45.630Z,100027.94
2023-05-19T03:44:17.936Z,100026.83
2023-05-19T03:44:50.411Z,100027.48
2023-05-19T03:45:22.452Z,100026.61
2023-05-19T03:45:54.549Z,100025.03
2023-05-19T03:46:26.864Z,100027.10
2023-05-19T03:46:59.219Z,100024.45
2023-05-19T03:47:31.452Z,100024.17
2023-05-19T03:48:04.408Z,100022.66
2023-05-19T03:48:36.487Z,100025.63
2023-05-19T03:49:08.452Z,100022.80
2023-05-19T03:49:40.486Z,100023.04
2023-05-19T03:50:13.568Z,100026.90
2023-05-19T03:50:45.662Z,100025.30
2023-05-19T03:51:17.894Z,100025.59
2023-05-19T03:51:50.127Z,100024.88
2023-05-19T03:52:22.392Z,100025.48
2023-05-19T03:52:54.847Z,100023.90
2023-05-19T03:53:26.810Z,100023.86
2023-05-19T03:53:58.873Z,100027.67
2023-05-19T03:54:31.411Z,100028.11
2023-05-19T03:55:04.094Z,100027.88
2023-05-19T03:55:36.942Z,100029.08
2023-05-19T03:56:13.309Z,100032.24
2023-05-19T03:56:45.763Z,100028.61
2023-05-19T03:57:17.930Z,100029.75
2023-05-19T03:57:49.876Z,100029.31
2023-05-19T03:58:21.916Z,100030.56
2023-05-19T03:58:54.600Z,100031.20
2023-05-19T03:59:26.654Z,100030.77
2023-05-19T03:59:59.507Z,100030.16
2023-05-19T04:00:32.029Z,100033.21
2023-05-19T04:01:04.833Z,100028.98
2023-05-19T04:01:36.758Z,100032.32
2023-05-19T04:02:08.837Z,100028.37
2023-05-19T04:02:41.048Z,100031.05
2023-05-19T04:03:13.896Z,100029.51
2023-05-19T04:03:46.222Z,100034.56
2023-05-19T04:04:18.508Z,100031.28
2023-05-19T04:04:50.859Z,100033.19
2023-05-19T04:05:22.996Z,100028.81
2023-05-19T04:05:55.349Z,100032.00
2023-05-19T04:06:27.605Z,100032.17
2023-05-19T04:06:59.556Z,100031.60
2023-05-19T04:07:31.625Z,100031.13
2023-05-19T04:08:03.764Z,100036.80
2023-05-19T04:08:36.128Z,100036.73
2023-05-19T04:09:15.748Z,100039.77
2023-05-19T04:09:48.419Z,100039.24
2023-05-19T04:10:21.390Z,100035.11
2023-05-19T04:10:53.854Z,100037.50
2023-05-19T04:11:26.101Z,100041.54
2023-05-19T04:11:58.483Z,100043.66
2023-05-19T04:12:31.557Z,100038.70
2023-05-19T04:13:03.705Z,100040.20
2023-05-19T04:13:35.974Z,100042.80
2023-05-19T04:14:08.831Z,100042.80
2023-05-19T04:14:41.196Z,100043.35
2023-05-19T04:15:13.548Z,100040.83
2023-05-19T04:15:45.706Z,100041.09
2023-05-19T04:16:18.304Z,100040.60
2023-05-19T04:16:50.629Z,100041.98
2023-05-19T04:17:26.099Z,100045.21
2023-05-19T04:17:58.443Z,100043.42
2023-05-19T04:18:31.195Z,100046.18
2023-05-19T04:19:03.493Z,100044.35
2023-05-19T04:19:35.402Z,100039.27
2023-05-19T04:20:07.862Z,100046.79
2023-05-19T04:20:40.304Z,100045.38
2023-05-19T04:21:12.370Z,100049.27
2023-05-19T04:21:44.387Z,100045.52
2023-05-19T04:22:16.467Z,100048.02
2023-05-19T04:22:48.720Z,100046.16
2023-05-19T04:23:20.898Z,100047.14
2023-05-19T04:23:53.336Z,100046.88
2023-05-19T04:24:25.794Z,100047.55
2023-05-19T04:24:58.047Z,100047.60
2023-05-19T04:25:30.629Z,100049.57
2023-05-19T04:26:03.379Z,100051.18
2023-05-19T04:26:37.545Z,100049.48
2023-05-19T04:27:11.680Z,100050.23
2023-05-19T04:27:43.643Z,100050.27
2023-05-19T04:28:16.108Z,100050.53
2023-05-19T04:28:48.757Z,100050.17
2023-05-19T04:29:23.185Z,100050.15
2023-05-19T04:29:55.841Z,100046.89
2023-05-19T04:30:28.297Z,100049.70
2023-05-19T04:31:00.895Z,100050.63
2023-05-19T04:31:34.082Z,100053.38
2023-05-19T04:32:07.316Z,100050.40
2023-05-19T04:32:41.029Z,100052.27
2023-05-19T04:33:13.556Z,100056.25
2023-05-19T04:33:47.062Z,100056.14
2023-05-19T04:34:19.516Z,100058.61
2023-05-19T04:34:52.082Z,100058.77
2023-05-19T04:35:24.661Z,100058.19
2023-05-19T04:35:58.031Z,100060.83
2023-05-19T04:36:31.001Z,100054.01
2023-05-19T04:37:03.985Z,100061.01
2023-05-19T04:37:37.556Z,100057.59
2023-05-19T04:38:09.723Z,100058.23
2023-05-19T04:38:41.578Z,100056.81
2023-05-19T04:39:14.021Z,100059.02
2023-05-19T04:39:45.941Z,100056.82
2023-05-19T04:40:20.801Z,100060.27
2023-05-19T04:40:52.843Z,100058.83
2023-05-19T04:41:24.823Z,100057.95
2023-05-19T04:41:56.830Z,100060.29
2023-05-19T04:42:30.330Z,100059.27
2023-05-19T04:43:02.348Z,100057.63
2023-05-19T04:43:34.553Z,100055.45
2023-05-19T04:44:09.687Z,100058.04
2023-05-19T04:44:41.725Z,100055.47
2023-05-19T04:45:14.582Z,100057.34
2023-05-19T04:45:49.910Z,100056.89
2023-05-19T04:46:24.239Z,100057.09
2023-05-19T04:46:58.162Z,100057.55
2023-05-19T04:47:30.257Z,100058.69
2023-05-19T04:48:02.374Z,100057.67
2023-05-19T04:48:34.478Z,100058.27
2023-05-19T04:49:07.408Z,100058.61
2023-05-19T04:49:39.362Z,100055.48
2023-05-19T04:50:11.359Z,100055.14
2023-05-19T04:50:43.396Z,100057.92
2023-05-19T04:51:17.393Z,100055.21
2023-05-19T04:51:53.272Z,100054.69
2023-05-19T04:52:27.541Z,100051.64
2023-05-19T04:52:59.481Z,100057.08
2023-05-19T04:53:31.534Z,100056.96
2023-05-19T04:54:03.610Z,100060.05
2023-05-19T04:54:35.641Z,100055.71
2023-05-19T04:55:08.308Z,100055.23
2023-05-19T04:55:40.567Z,100054.89
2023-05-19T04:56:14.871Z,100053.68
2023-05-19T04:56:46.944Z,100056.68
2023-05-19T04:57:18.942Z,100055.60
2023-05-19T04:57:51.129Z,100055.29
2023-05-19T04:58:26.075Z,100055.02
2023-05-19T04:58:58.142Z,100053.55
2023-05-19T04:59:30.896Z,100051.56
2023-05-19T05:00:07.541Z,100048.85
2023-05-19T05:00:39.506Z,100050.98
2023-05-19T05:01:13.593Z,100049.05
2023-05-19T05:01:45.670Z,100052.88
2023-05-19T05:02:17.733Z,100052.28
2023-05-19T05:02:50.458Z,100055.85
2023-05-19T05:03:22.780Z,100051.58
2023-05-19T05:03:55.426Z,100052.46
2023-05-19T05:04:28.024Z,100051.21
2023-05-19T05:05:00.294Z,100054.30
2023-05-19T05:05:32.649Z,100054.97
2023-05-19T05:06:06.248Z,100055.14
2023-05-19T05:06:38.202Z,100058.61
2023-05-19T05:07:10.468Z,100055.81
2023-05-19T05:07:42.917Z,100058.83
2023-05-19T05:08:21.416Z,100057.02
2023-05-19T05:08:53.459Z,100062.08
2023-05-19T05:09:25.716Z,100062.40
2023-05-19T05:09:57.675Z,100059.77
2023-05-19T05:10:30.121Z,100062.35
2023-05-19T05:11:02.692Z,100059.46
2023-05-19T05:11:35.225Z,100062.92
2023-05-19T05:12:08.169Z,100059.65
2023-05-19T05:12:41.170Z,100060.45
2023-05-19T05:13:13.545Z,100058.61
2023-05-19T05:13:45.918Z,100057.59
2023-05-19T05:14:18.169Z,100057.85
2023-05-19T05:14:50.945Z,100056.12
2023-05-19T05:15:23.917Z,100057.81
2023-05-19T05:15:56.347Z,100057.42
2023-05-19T05:16:28.873Z,100060.77
2023-05-19T05:17:02.318Z,100057.31
2023-05-19T05:17:35.451Z,100062.15
2023-05-19T05:18:08.383Z,100056.50
2023-05-19T05:18:42.200Z,100054.86
2023-05-19T05:19:16.695Z,100059.48
2023-05-19T05:19:49.441Z,100060.52
2023-05-19T05:20:22.175Z,100060.83
2023-05-19T05:20:54.469Z,100062.69
2023-05-19T05:21:27.647Z,100060.55
2023-05-19T05:22:00.201Z,100063.47
2023-05-19T05:22:33.281Z,100060.29
2023-05-19T05:23:06.474Z,100059.63
2023-05-19T05:23:38.832Z,100062.05
2023-05-19T05:24:11.682Z,100061.45
2023-05-19T05:24:44.312Z,100062.79
2023-05-19T05:25:17.570Z,100059.65
2023-05-19T05:25:49.984Z,100060.42
2023-05-19T05:26:22.878Z,100062.16
2023-05-19T05:26:55.136Z,100065.33
2023-05-19T05:27:27.688Z,100064.30
2023-05-19T05:28:04.648Z,100063.59
2023-05-19T05:28:37.420Z,100065.27
2023-05-19T05:29:10.189Z,100068.72
2023-05-19T05:29:42.349Z,100066.29
2023-05-19T05:30:14.386Z,100067.70
2023-05-19T05:30:47.209Z,100074.33
2023-05-19T05:31:19.185Z,100071.41
2023-05-19T05:31:51.466Z,100071.13
2023-05-19T05:32:23.533Z,100069.85
2023-05-19T05:32:56.010Z,100072.20
2023-05-19T05:33:28.380Z,100072.08
2023-05-19T05:34:00.650Z,100070.18
2023-05-19T05:34:32.968Z,100068.85
2023-05-19T05:35:05.599Z,100071.27
2023-05-19T05:35:37.627Z,100067.14
2023-05-19T05:36:09.840Z,100072.38
2023-05-19T05:36:42.104Z,100071.50
2023-05-19T05:37:15.464Z,100074.45
2023-05-19T05:37:47.718Z,100075.61
2023-05-19T05:38:19.797Z,100074.79
2023-05-19T05:38:51.822Z,100073.31
2023-05-19T05:39:23.903Z,100071.96
2023-05-19T05:39:56.572Z,100071.48
2023-05-19T05:40:28.602Z,100073.81
2023-05-19T05:41:02.410Z,100071.56
2023-05-19T05:41:38.048Z,100069.90
2023-05-19T05:42:11.008Z,100068.23
2023-05-19T05:42:43.251Z,100071.33
2023-05-19T05:43:15.428Z,100070.02
2023-05-19T05:43:47.462Z,100070.31
2023-05-19T05:44:19.551Z,100071.70
2023-05-19T05:44:51.969Z,100070.04
2023-05-19T05:45:24.338Z,100071.70
2023-05-19T05:45:57.391Z,100068.95
2023-05-19T05:46:29.927Z,100071.34
2023-05-19T05:47:03.371Z,100073.66
2023-05-19T05:47:39.299Z,100069.61
2023-05-19T05:48:11.771Z,100069.49
2023-05-19T05:48:44.338Z,100071.17
2023-05-19T05:49:16.693Z,100071.81
2023-05-19T05:49:49.910Z,100071.83
2023-05-19T05:50:23.608Z,100070.17
2023-05-19T05:50:57.678Z,100073.61
2023-05-19T05:51:32.480Z,100072.76
2023-05-19T05:52:06.783Z,100071.45
2023-05-19T05:52:41.328Z,100075.65
2023-05-19T05:53:19.091Z,100073.15
2023-05-19T05:53:55.330Z,100073.19
2023-05-19T05:54:27.987Z,100073.67
2023-05-19T05:55:01.185Z,100075.72
2023-05-19T05:55:33.894Z,100074.23
2023-05-19T05:56:07.833Z,100070.59
2023-05-19T05:56:40.911Z,100070.95
2023-05-19T05:57:13.220Z,100073.90
2023-05-19T05:57:45.286Z,100070.55
2023-05-19T05:58:17.477Z,100073.44
2023-05-19T05:58:50.244Z,100071.70
2023-05-19T05:59:22.641Z,100070.33
2023-05-19T05:59:55.161Z,100072.92
2023-05-19T06:00:28.026Z,100071.95
2023-05-19T06:01:02.038Z,100074.12
2023-05-19T06:01:35.843Z,100073.16
2023-05-19T06:02:08.290Z,100076.05
2023-05-19T06:02:43.089Z,100072.05
2023-05-19T06:03:16.532Z,100072.38
2023-05-19T06:03:48.691Z,100072.67
2023-05-19T06:04:20.700Z,100071.42
2023-05-19T06:04:54.073Z,100071.65
2023-05-19T06:05:26.414Z,100071.95
2023-05-19T06:05:58.644Z,100072.60
2023-05-19T06:06:31.197Z,100073.19
2023-05-19T06:07:03.510Z,100072.20
2023-05-19T06:07:35.392Z,100074.70
2023-05-19T06:08:07.406Z,100075.30
2023-05-19T06:08:39.363Z,100075.11
2023-05-19T06:09:12.150Z,100076.17
2023-05-19T06:09:44.223Z,100075.81
2023-05-19T06:10:16.532Z,100080.42
2023-05-19T06:10:48.721Z,100076.39
2023-05-19T06:11:20.937Z,100075.02
2023-05-19T06:11:53.211Z,100079.40
2023-05-19T06:12:26.800Z,100078.48
2023-05-19T06:12:58.743Z,100078.25
2023-05-19T06:13:30.811Z,100084.00
2023-05-19T06:14:03.284Z,100082.56
2023-05-19T06:14:35.300Z,100084.85
2023-05-19T06:15:07.764Z,100081.70
2023-05-19T06:15:39.798Z,100083.86
2023-05-19T06:16:11.806Z,100084.80
2023-05-19T06:16:44.230Z,100085.40
2023-05-19T06:17:16.694Z,100087.15
2023-05-19T06:17:48.915Z,100085.56
2023-05-19T06:18:21.214Z,100085.37
2023-05-19T06:18:53.399Z,100091.36
2023-05-19T06:19:25.601Z,100088.66
2023-05-19T06:19:57.775Z,100088.91
2023-05-19T06:20:29.904Z,100087.59
2023-05-19T06:21:03.024Z,100090.19
2023-05-19T06:21:35.070Z,100092.89
2023-05-19T06:22:07.097Z,100094.21
2023-05-19T06:22:39.660Z,100091.98
2023-05-19T06:23:11.525Z,100093.88
2023-05-19T06:23:43.359Z,100092.17
2023-05-19T06:24:15.407Z,100091.05
2023-05-19T06:24:48.174Z,100094.05
2023-05-19T06:25:20.336Z,100094.52
2023-05-19T06:25:52.606Z,100091.06